createdAt,value
2018-11-22T00:02:41.812Z,37.57
2018-11-22T00:06:45.533Z,35.53
2018-11-22T00:10:31.538Z,33.87
2018-11-22T00:14:16.657Z,37.40
2018-11-22T00:18:02.018Z,37.30
2018-11-22T00:21:47.507Z,33.97
2018-11-22T00:25:32.652Z,41.27
2018-11-22T00:29:17.766Z,38.87
2018-11-22T00:33:02.946Z,36.27
2018-11-22T00:37:06.699Z,42.80
2018-11-22T00:40:51.847Z,39.77
2018-11-22T00:44:37.283Z,40.33
2018-11-22T00:48:22.705Z,48.70
2018-11-22T00:52:07.896Z,47.67
2018-11-22T00:56:11.886Z,47.87
2018-11-22T00:59:57.016Z,48.70
2018-11-22T01:03:42.135Z,55.37
2018-11-22T01:07:45.824Z,49.87
2018-11-22T01:15:27.253Z,50.17
2018-11-22T01:19:12.388Z,50.93
2018-11-22T01:22:59.104Z,57.47
2018-11-22T01:26:44.227Z,53.17
2018-11-22T01:30:29.345Z,54.07
2018-11-22T01:34:14.477Z,50.77
2018-11-22T01:37:59.989Z,53.93
2018-11-22T01:41:45.122Z,52.10
2018-11-22T01:45:30.257Z,56.03
2018-11-22T01:49:15.428Z,51.13
2018-11-22T01:53:00.551Z,54.40
2018-11-22T01:56:45.790Z,54.43
2018-11-22T02:00:31.183Z,52.67
2018-11-22T02:04:16.316Z,51.90
2018-11-22T02:08:20.042Z,51.50
2018-11-22T02:12:05.191Z,56.07
2018-11-22T02:15:50.326Z,57.50
2018-11-22T02:19:54.628Z,51.90
2018-11-22T02:23:39.756Z,56.40
2018-11-22T02:27:43.701Z,54.43
2018-11-22T02:31:28.828Z,54.87
2018-11-22T02:35:14.590Z,55.53
2018-11-22T02:38:59.738Z,52.70
2018-11-22T02:42:45.760Z,56.10
2018-11-22T02:46:30.888Z,50.40
2018-11-22T02:50:17.463Z,51.83
2018-11-22T02:54:02.553Z,55.47
2018-11-22T02:57:47.763Z,54.50
2018-11-22T03:01:51.442Z,53.07
2018-11-22T03:05:36.632Z,55.80
2018-11-22T03:09:22.027Z,54.87
2018-11-22T03:13:26.822Z,52.73
2018-11-22T03:16:52.986Z,50.90
2018-11-22T03:20:38.078Z,50.80
2018-11-22T03:24:23.211Z,56.57
2018-11-22T03:28:08.346Z,58.03
2018-11-22T03:31:53.466Z,58.23
2018-11-22T03:35:38.598Z,53.37
2018-11-22T03:39:23.733Z,56.30
2018-11-22T03:43:08.873Z,59.73
2018-11-22T03:46:53.989Z,51.70
2018-11-22T03:50:39.107Z,53.67
2018-11-22T03:54:42.763Z,55.10
2018-11-22T03:58:28.555Z,56.17
2018-11-22T04:02:13.662Z,56.00
2018-11-22T04:05:58.799Z,51.07
2018-11-22T04:10:02.464Z,49.27
2018-11-22T04:13:48.068Z,52.73
2018-11-22T04:17:33.488Z,49.10
2018-11-22T04:21:18.620Z,53.03
2018-11-22T04:25:03.768Z,52.70
2018-11-22T04:29:07.578Z,53.23
2018-11-22T04:32:53.316Z,53.37
2018-11-22T04:36:39.223Z,58.70
2018-11-22T04:40:25.502Z,55.63
2018-11-22T04:44:10.663Z,56.63
2018-11-22T04:47:57.414Z,50.63
2018-11-22T04:51:42.528Z,52.63
2018-11-22T04:55:27.680Z,50.00
2018-11-22T04:59:12.801Z,48.10
2018-11-22T05:02:57.910Z,53.20
2018-11-22T05:06:43.069Z,47.20
2018-11-22T05:10:29.396Z,48.80
2018-11-22T05:14:14.544Z,52.80
2018-11-22T05:18:00.019Z,49.43
2018-11-22T05:21:45.241Z,48.73
2018-11-22T05:25:30.384Z,51.60
2018-11-22T05:29:15.879Z,47.77
2018-11-22T05:33:01.352Z,46.70
2018-11-22T05:36:46.508Z,50.23
2018-11-22T05:40:31.962Z,48.77
2018-11-22T05:44:35.700Z,45.27
2018-11-22T05:48:20.829Z,48.60
2018-11-22T05:52:06.615Z,46.27
2018-11-22T05:55:51.363Z,44.83
2018-11-22T05:59:36.528Z,46.50
2018-11-22T06:03:22.057Z,49.93
2018-11-22T06:06:59.668Z,48.50
2018-11-22T06:10:45.347Z,46.87
2018-11-22T06:14:30.801Z,47.73
2018-11-22T06:18:34.476Z,45.30
2018-11-22T06:22:19.696Z,45.27
2018-11-22T06:26:04.862Z,47.83
2018-11-22T06:29:49.983Z,46.83
2018-11-22T06:33:35.442Z,45.90
2018-11-22T06:37:20.579Z,44.20
2018-11-22T06:41:05.717Z,49.93
2018-11-22T06:44:51.114Z,46.10
2018-11-22T06:48:36.216Z,51.10
2018-11-22T06:52:21.328Z,50.43
2018-11-22T06:56:06.796Z,45.10
2018-11-22T06:59:51.918Z,44.77
2018-11-22T07:03:37.043Z,51.63
2018-11-22T07:07:22.190Z,45.07
2018-11-22T07:11:07.392Z,42.63
2018-11-22T07:14:52.604Z,48.27
2018-11-22T07:18:56.316Z,49.30
2018-11-22T07:23:00.030Z,45.97
2018-11-22T07:26:45.450Z,47.00
2018-11-22T07:30:32.239Z,45.93
2018-11-22T07:34:17.402Z,44.80
2018-11-22T07:38:03.217Z,46.80
2018-11-22T07:41:48.630Z,43.53
2018-11-22T07:45:35.459Z,46.97
2018-11-22T07:49:20.621Z,46.53
2018-11-22T07:53:05.808Z,45.33
2018-11-22T07:56:51.002Z,45.80
2018-11-22T08:00:38.131Z,46.83
2018-11-22T08:04:41.843Z,41.67
2018-11-22T08:08:27.021Z,48.67
2018-11-22T08:12:12.321Z,42.83
2018-11-22T08:15:57.332Z,41.77
2018-11-22T08:19:42.539Z,44.00
2018-11-22T08:23:46.615Z,40.87
2018-11-22T08:27:31.792Z,44.23
2018-11-22T08:31:16.978Z,41.57
2018-11-22T08:35:02.189Z,46.60
2018-11-22T08:38:47.607Z,44.83
2018-11-22T08:42:32.788Z,38.37
2018-11-22T08:46:17.918Z,38.80
2018-11-22T08:50:03.499Z,44.93
2018-11-22T08:53:48.702Z,39.50
2018-11-22T08:57:33.943Z,45.37
2018-11-22T09:01:19.142Z,39.73
2018-11-22T09:05:04.331Z,40.37
2018-11-22T09:08:49.455Z,37.83
2018-11-22T09:12:34.599Z,42.73
2018-11-22T09:16:19.814Z,37.73
2018-11-22T09:20:05.014Z,39.53
2018-11-22T09:23:50.172Z,34.87
2018-11-22T09:27:35.442Z,40.93
2018-11-22T09:31:20.705Z,38.60
2018-11-22T09:35:06.224Z,40.50
2018-11-22T09:38:51.606Z,40.00
2018-11-22T09:42:36.831Z,43.07
2018-11-22T09:46:22.043Z,44.87
2018-11-22T09:50:07.515Z,38.80
2018-11-22T09:54:11.192Z,39.30
2018-11-22T09:58:14.846Z,38.73
2018-11-22T10:02:18.538Z,38.43
2018-11-22T10:06:03.736Z,41.17
2018-11-22T10:09:48.836Z,37.33
2018-11-22T10:13:33.997Z,42.43
2018-11-22T10:17:19.157Z,40.00
2018-11-22T10:21:04.595Z,38.93
2018-11-22T10:24:49.764Z,39.00
2018-11-22T10:28:34.879Z,34.30
2018-11-22T10:32:20.009Z,36.77
2018-11-22T10:36:05.146Z,38.47
2018-11-22T10:40:08.850Z,31.50
2018-11-22T10:43:53.952Z,36.63
2018-11-22T10:47:39.374Z,31.00
2018-11-22T10:51:24.510Z,36.83
2018-11-22T10:55:11.448Z,36.03
2018-11-22T10:58:56.553Z,34.97
2018-11-22T11:03:00.217Z,35.37
2018-11-22T11:07:03.901Z,40.10
2018-11-22T11:11:07.586Z,34.07
2018-11-22T11:14:52.796Z,36.57
2018-11-22T11:18:37.889Z,33.07
2018-11-22T11:22:22.998Z,34.03
2018-11-22T11:26:08.151Z,33.53
2018-11-22T11:30:11.836Z,34.53
2018-11-22T11:33:57.289Z,32.47
2018-11-22T11:37:42.510Z,30.67
2018-11-22T11:41:27.685Z,37.17
2018-11-22T11:45:12.902Z,34.63
2018-11-22T11:48:58.169Z,35.83
2018-11-22T11:52:43.433Z,37.43
2018-11-22T11:56:28.547Z,38.10
2018-11-22T12:00:51.500Z,36.10
2018-11-22T12:04:36.674Z,34.60
2018-11-22T12:08:22.099Z,35.63
2018-11-22T12:12:07.421Z,32.73
2018-11-22T12:15:52.704Z,39.33
2018-11-22T12:19:38.008Z,36.47
2018-11-22T12:23:24.374Z,32.47
2018-11-22T12:27:09.882Z,35.80
2018-11-22T12:30:55.307Z,43.83
2018-11-22T12:34:59.283Z,39.50
2018-11-22T12:38:45.256Z,38.57
2018-11-22T12:42:30.394Z,38.77
2018-11-22T12:46:15.578Z,35.93
2018-11-22T12:50:01.774Z,32.87
2018-11-22T12:54:05.382Z,40.80
2018-11-22T12:57:50.628Z,35.27
2018-11-22T13:01:54.314Z,36.87
2018-11-22T13:05:39.430Z,41.57
2018-11-22T13:09:24.553Z,36.87
2018-11-22T13:13:28.231Z,37.50
2018-11-22T13:17:31.935Z,39.10
2018-11-22T13:21:17.141Z,36.13
2018-11-22T13:25:02.283Z,44.23
2018-11-22T13:28:47.409Z,37.33
2018-11-22T13:32:32.534Z,39.03
2018-11-22T13:36:17.670Z,38.00
2018-11-22T13:40:02.777Z,38.10
2018-11-22T13:44:06.460Z,35.90
2018-11-22T13:47:52.913Z,36.07
2018-11-22T13:51:38.051Z,38.00
2018-11-22T13:55:23.162Z,39.30
2018-11-22T13:59:08.313Z,39.60
2018-11-22T14:02:54.983Z,41.93
2018-11-22T14:06:40.113Z,45.30
2018-11-22T14:10:25.244Z,36.33
2018-11-22T14:14:10.378Z,38.53
2018-11-22T14:17:57.245Z,39.60
2018-11-22T14:21:42.475Z,34.53
2018-11-22T14:25:27.682Z,39.77
2018-11-22T14:29:13.211Z,34.40
2018-11-22T14:32:58.364Z,34.90
2018-11-22T14:36:43.977Z,34.53
2018-11-22T14:40:30.903Z,33.50
2018-11-22T14:44:16.028Z,34.40
2018-11-22T14:48:19.703Z,35.10
2018-11-22T14:52:04.854Z,34.83
2018-11-22T14:55:49.986Z,40.60
2018-11-22T14:59:35.559Z,39.70
2018-11-22T15:03:20.979Z,36.40
2018-11-22T15:07:06.124Z,36.23
2018-11-22T15:10:51.283Z,39.63
2018-11-22T15:14:55.325Z,35.30
2018-11-22T15:18:40.461Z,31.97
2018-11-22T15:22:25.681Z,32.83
2018-11-22T15:26:29.350Z,38.13
2018-11-22T15:30:33.092Z,36.73
2018-11-22T15:34:18.194Z,35.13
2018-11-22T15:38:03.402Z,39.83
2018-11-22T15:41:48.521Z,40.40
2018-11-22T15:45:34.965Z,34.77
2018-11-22T15:49:19.068Z,36.30
2018-11-22T15:53:04.471Z,40.83
2018-11-22T15:56:30.643Z,40.83
2018-11-22T16:00:18.451Z,39.47
2018-11-22T16:04:03.634Z,38.13
2018-11-22T16:07:43.148Z,38.40
2018-11-22T16:11:28.280Z,39.60
2018-11-22T16:14:54.489Z,37.87
2018-11-22T16:18:39.615Z,43.00
2018-11-22T16:22:05.912Z,41.43
2018-11-22T16:25:51.161Z,49.83
2018-11-22T16:29:36.277Z,44.83
2018-11-22T16:33:21.424Z,49.13
2018-11-22T16:37:06.549Z,49.33
2018-11-22T16:40:51.814Z,50.43
2018-11-22T16:44:55.520Z,46.73
2018-11-22T16:48:40.647Z,44.63
2018-11-22T16:52:25.873Z,41.07
2018-11-22T16:56:10.993Z,45.47
2018-11-22T16:59:56.168Z,48.90
2018-11-22T17:03:41.232Z,53.87
2018-11-22T17:07:26.532Z,55.07
2018-11-22T17:11:11.671Z,49.10
2018-11-22T17:14:56.785Z,50.20
2018-11-22T17:19:00.483Z,49.93
2018-11-22T17:22:46.367Z,51.03
2018-11-22T17:26:50.053Z,51.63
2018-11-22T17:30:39.767Z,52.00
2018-11-22T17:34:24.901Z,46.43
2018-11-22T17:38:10.959Z,46.77
2018-11-22T17:41:56.149Z,53.80
2018-11-22T17:45:42.758Z,51.70
2018-11-22T17:49:27.892Z,50.40
2018-11-22T17:53:13.500Z,45.97
2018-11-22T17:56:58.618Z,54.07
2018-11-22T18:01:02.290Z,51.77
2018-11-22T18:04:47.471Z,48.07
2018-11-22T18:08:32.641Z,53.30
2018-11-22T18:12:17.772Z,55.27
2018-11-22T18:16:02.999Z,50.60
2018-11-22T18:19:48.103Z,49.27
2018-11-22T18:23:33.593Z,51.03
2018-11-22T18:27:18.731Z,46.50
2018-11-22T18:31:03.908Z,49.90
2018-11-22T18:34:49.439Z,49.73
2018-11-22T18:38:34.660Z,48.53
2018-11-22T18:42:19.802Z,54.60
2018-11-22T18:46:05.779Z,53.00
2018-11-22T18:49:51.261Z,48.67
2018-11-22T18:53:54.928Z,65.43
2018-11-22T18:57:58.635Z,66.63
2018-11-22T19:01:45.071Z,54.13
2018-11-22T19:05:47.483Z,62.13
2018-11-22T19:09:51.572Z,72.33
2018-11-22T19:13:36.698Z,72.97
2018-11-22T19:17:22.182Z,64.80
2018-11-22T19:21:07.341Z,58.07
2018-11-22T19:24:52.736Z,56.13
2018-11-22T19:28:38.126Z,56.07
2018-11-22T19:32:23.401Z,51.43
2018-11-22T19:36:08.816Z,47.57
2018-11-22T19:39:53.990Z,46.77
2018-11-22T19:43:39.135Z,45.43
2018-11-22T19:47:24.325Z,46.07
2018-11-22T19:51:09.468Z,42.90
2018-11-22T19:55:13.154Z,45.57
2018-11-22T19:58:58.284Z,50.53
2018-11-22T20:03:01.999Z,47.70
2018-11-22T20:07:05.666Z,45.37
2018-11-22T20:10:51.308Z,49.43
2018-11-22T20:14:36.422Z,52.70
2018-11-22T20:18:40.089Z,47.97
2018-11-22T20:22:25.500Z,40.33
2018-11-22T20:26:11.033Z,46.00
2018-11-22T20:30:14.701Z,47.67
2018-11-22T20:33:59.875Z,47.97
2018-11-22T20:37:45.775Z,49.00
2018-11-22T20:41:49.433Z,51.10
2018-11-22T20:45:40.683Z,48.37
2018-11-22T20:49:20.395Z,54.67
2018-11-22T20:53:05.589Z,49.63
2018-11-22T20:56:50.776Z,43.50
2018-11-22T21:00:37.631Z,45.90
2018-11-22T21:04:03.821Z,43.03
2018-11-22T21:07:48.978Z,50.73
2018-11-22T21:11:34.095Z,39.17
2018-11-22T21:15:38.713Z,41.57
2018-11-22T21:19:23.891Z,43.97
2018-11-22T21:23:09.037Z,51.40
2018-11-22T21:26:54.623Z,49.17
2018-11-22T21:30:40.691Z,40.90
2018-11-22T21:34:26.264Z,44.90
2018-11-22T21:38:11.388Z,42.57
2018-11-22T21:42:15.079Z,40.70
2018-11-22T21:46:00.201Z,42.07
2018-11-22T21:50:06.708Z,41.40
2018-11-22T21:54:10.401Z,39.80
2018-11-22T21:57:56.675Z,38.80
2018-11-22T22:01:41.823Z,38.67
2018-11-22T22:05:26.943Z,39.23
2018-11-22T22:09:12.028Z,43.13
2018-11-22T22:12:57.184Z,41.07
2018-11-22T22:16:42.305Z,44.20
2018-11-22T22:20:46.005Z,45.60
2018-11-22T22:24:31.172Z,45.27
2018-11-22T22:28:16.619Z,42.60
2018-11-22T22:32:01.771Z,39.53
2018-11-22T22:35:46.956Z,43.80
2018-11-22T22:39:32.077Z,45.30
2018-11-22T22:43:17.170Z,40.60
2018-11-22T22:47:02.284Z,44.07
2018-11-22T22:50:47.693Z,49.03
2018-11-22T22:54:32.870Z,45.30
2018-11-22T22:58:18.024Z,49.87
2018-11-22T23:02:22.132Z,52.00
2018-11-22T23:06:07.243Z,46.33
2018-11-22T23:09:52.352Z,43.73
2018-11-22T23:13:37.474Z,46.67
2018-11-22T23:17:41.150Z,44.50
2018-11-22T23:21:26.253Z,46.30
2018-11-22T23:25:12.434Z,41.03
2018-11-22T23:28:57.547Z,44.17
2018-11-22T23:32:43.017Z,40.53
2018-11-22T23:36:28.131Z,44.77
2018-11-22T23:40:14.782Z,38.23
2018-11-22T23:44:00.176Z,46.23
2018-11-22T23:47:45.775Z,43.73
2018-11-22T23:51:30.875Z,38.37
2018-11-22T23:55:34.555Z,38.77
2018-11-22T23:59:19.759Z,39.10
